createdAt,value
2019-02-18T00:02:05.167Z,98384.44
2019-02-18T00:07:14.502Z,98385.02
2019-02-18T00:12:16.397Z,98380.27
2019-02-18T00:17:21.139Z,98381.98
2019-02-18T00:22:27.012Z,98379.94
2019-02-18T00:27:31.752Z,98377.08
2019-02-18T00:32:36.394Z,98374.92
2019-02-18T00:37:42.847Z,98366.50
2019-02-18T00:42:47.615Z,98361.06
2019-02-18T00:47:52.250Z,98358.07
2019-02-18T00:52:57.004Z,98349.02
2019-02-18T00:58:01.745Z,98345.13
2019-02-18T01:03:06.586Z,98350.41
2019-02-18T01:08:11.231Z,98340.95
2019-02-18T01:13:15.800Z,98339.73
2019-02-18T01:18:20.508Z,98332.90
2019-02-18T01:23:25.093Z,98328.72
2019-02-18T01:28:29.805Z,98322.70
2019-02-18T01:33:34.466Z,98318.52
2019-02-18T01:38:39.174Z,98314.77
2019-02-18T01:43:43.742Z,98320.77
2019-02-18T01:48:48.342Z,98314.11
2019-02-18T01:53:52.875Z,98307.88
2019-02-18T01:58:57.532Z,98305.32
2019-02-18T02:04:02.172Z,98314.62
2019-02-18T02:09:08.960Z,98311.72
2019-02-18T02:14:14.109Z,98313.98
2019-02-18T02:19:18.752Z,98305.69
2019-02-18T02:24:23.495Z,98316.77
2019-02-18T02:29:28.544Z,98317.90
2019-02-18T02:34:33.187Z,98317.55
2019-02-18T02:39:39.107Z,98310.30
2019-02-18T02:44:44.413Z,98318.55
2019-02-18T02:49:49.155Z,98317.67
2019-02-18T02:54:53.893Z,98313.98
2019-02-18T02:59:58.639Z,98320.38
2019-02-18T03:05:03.383Z,98318.66
2019-02-18T03:10:13.068Z,98312.61
2019-02-18T03:15:19.417Z,98311.34
2019-02-18T03:20:25.271Z,98311.46
2019-02-18T03:25:31.275Z,98311.44
2019-02-18T03:30:57.607Z,98306.70
2019-02-18T03:36:02.237Z,98315.44
2019-02-18T03:41:06.882Z,98310.61
2019-02-18T03:46:13.291Z,98312.08
2019-02-18T03:51:18.006Z,98314.81
2019-02-18T03:56:22.545Z,98316.98
2019-02-18T04:01:27.400Z,98315.94
2019-02-18T04:06:32.135Z,98323.53
2019-02-18T04:11:37.084Z,98317.55
2019-02-18T04:16:41.720Z,98322.14
2019-02-18T04:21:46.667Z,98323.72
2019-02-18T04:26:51.413Z,98325.11
2019-02-18T04:31:56.152Z,98328.16
2019-02-18T04:37:00.916Z,98328.89
2019-02-18T04:42:05.640Z,98332.57
2019-02-18T04:47:10.382Z,98335.56
2019-02-18T04:52:15.121Z,98341.59
2019-02-18T04:57:19.754Z,98336.05
2019-02-18T05:02:24.507Z,98337.84
2019-02-18T05:07:30.269Z,98336.99
2019-02-18T05:12:35.010Z,98339.88
2019-02-18T05:17:40.724Z,98342.09
2019-02-18T05:22:45.420Z,98353.85
2019-02-18T05:27:50.013Z,98356.70
2019-02-18T05:32:54.822Z,98365.39
2019-02-18T05:37:59.421Z,98366.64
2019-02-18T05:43:04.181Z,98377.37
2019-02-18T05:48:08.829Z,98385.56
2019-02-18T05:53:13.463Z,98388.20
2019-02-18T05:58:19.410Z,98392.92
2019-02-18T06:03:24.092Z,98392.51
2019-02-18T06:08:28.818Z,98384.63
2019-02-18T06:13:33.576Z,98384.53
2019-02-18T06:18:38.313Z,98389.56
2019-02-18T06:23:43.241Z,98392.06
2019-02-18T06:28:48.014Z,98404.64
2019-02-18T06:33:53.662Z,98410.48
2019-02-18T06:38:58.603Z,98403.95
2019-02-18T06:44:03.462Z,98402.68
2019-02-18T06:49:15.690Z,98402.23
2019-02-18T06:54:21.722Z,98400.70
2019-02-18T06:59:32.683Z,98399.48
2019-02-18T07:04:45.072Z,98405.20
2019-02-18T07:09:54.501Z,98397.11
2019-02-18T07:14:59.272Z,98399.16
2019-02-18T07:20:05.104Z,98404.41
2019-02-18T07:25:10.370Z,98407.10
2019-02-18T07:30:15.032Z,98407.98
2019-02-18T07:35:19.856Z,98401.23
2019-02-18T07:40:24.707Z,98401.06
2019-02-18T07:45:29.543Z,98397.45
2019-02-18T07:50:34.287Z,98395.55
2019-02-18T07:55:39.030Z,98398.38
2019-02-18T08:00:43.777Z,98397.34
2019-02-18T08:05:48.629Z,98395.44
2019-02-18T08:10:54.161Z,98396.39
2019-02-18T08:15:59.230Z,98390.98
2019-02-18T08:21:04.174Z,98384.24
2019-02-18T08:26:10.048Z,98371.66
2019-02-18T08:31:14.687Z,98377.91
2019-02-18T08:36:21.290Z,98375.09
2019-02-18T08:41:26.731Z,98368.84
2019-02-18T08:46:31.594Z,98355.70
2019-02-18T08:51:36.339Z,98362.08
2019-02-18T08:56:41.164Z,98360.36
2019-02-18T09:01:45.914Z,98360.37
2019-02-18T09:06:50.656Z,98360.70
2019-02-18T09:11:55.394Z,98355.20
2019-02-18T09:17:01.078Z,98362.89
2019-02-18T09:22:07.370Z,98353.13
2019-02-18T09:27:12.319Z,98355.77
2019-02-18T09:32:17.138Z,98352.77
2019-02-18T09:37:21.976Z,98347.37
2019-02-18T09:42:26.966Z,98338.45
2019-02-18T09:47:31.910Z,98333.64
2019-02-18T09:52:36.833Z,98332.92
2019-02-18T09:57:41.440Z,98321.09
2019-02-18T10:02:47.084Z,98313.91
2019-02-18T10:07:51.988Z,98308.25
2019-02-18T10:12:59.556Z,98300.41
2019-02-18T10:18:04.031Z,98296.73
2019-02-18T10:23:09.231Z,98281.89
2019-02-18T10:28:14.079Z,98277.59
2019-02-18T10:33:18.874Z,98276.05
2019-02-18T10:38:23.605Z,98269.43
2019-02-18T10:43:32.540Z,98253.69
2019-02-18T10:48:35.139Z,98239.45
2019-02-18T10:53:39.897Z,98230.40
2019-02-18T10:58:44.680Z,98230.66
2019-02-18T11:03:49.580Z,98216.10
2019-02-18T11:08:54.335Z,98211.94
2019-02-18T11:13:59.062Z,98193.72
2019-02-18T11:19:04.010Z,98191.94
2019-02-18T11:24:08.662Z,98181.23
2019-02-18T11:29:13.499Z,98177.84
2019-02-18T11:34:19.881Z,98169.23
2019-02-18T11:39:24.620Z,98163.89
2019-02-18T11:44:29.372Z,98155.33
2019-02-18T11:49:34.015Z,98150.43
2019-02-18T11:54:40.360Z,98146.95
2019-02-18T11:59:45.342Z,98144.33
2019-02-18T12:04:51.060Z,98135.76
2019-02-18T12:09:56.099Z,98124.88
2019-02-18T12:15:03.054Z,98112.58
2019-02-18T12:20:14.043Z,98113.14
2019-02-18T12:25:19.094Z,98106.53
2019-02-18T12:30:23.915Z,98102.33
2019-02-18T12:35:32.274Z,98099.12
2019-02-18T12:40:37.454Z,98095.05
2019-02-18T12:45:42.680Z,98090.76
2019-02-18T12:50:48.342Z,98081.73
2019-02-18T12:55:53.189Z,98079.13
2019-02-18T13:00:57.836Z,98077.27
2019-02-18T13:06:02.875Z,98075.22
2019-02-18T13:11:08.851Z,98069.89
2019-02-18T13:16:15.181Z,98071.71
2019-02-18T13:21:19.870Z,98069.42
2019-02-18T13:26:24.616Z,98062.72
2019-02-18T13:31:29.604Z,98059.52
2019-02-18T13:36:34.309Z,98060.29
2019-02-18T13:41:39.157Z,98057.58
2019-02-18T13:46:44.920Z,98056.37
2019-02-18T13:51:56.417Z,98051.04
2019-02-18T13:56:56.064Z,98052.19
2019-02-18T14:02:00.890Z,98055.28
2019-02-18T14:07:05.692Z,98050.24
2019-02-18T14:12:16.160Z,98050.24
2019-02-18T14:17:19.425Z,98043.00
2019-02-18T14:22:24.272Z,98044.76
2019-02-18T14:27:29.114Z,98038.26
2019-02-18T14:32:33.865Z,98043.11
2019-02-18T14:37:38.706Z,98043.56
2019-02-18T14:42:43.824Z,98043.39
2019-02-18T14:47:48.902Z,98051.38
2019-02-18T14:52:53.554Z,98053.39
2019-02-18T14:57:58.502Z,98051.92
2019-02-18T15:03:03.249Z,98051.61
2019-02-18T15:08:07.996Z,98052.39
2019-02-18T15:13:12.643Z,98055.44
2019-02-18T15:18:17.469Z,98065.20
2019-02-18T15:23:22.214Z,98065.03
2019-02-18T15:28:26.949Z,98066.30
2019-02-18T15:33:31.722Z,98061.00
2019-02-18T15:38:36.736Z,98065.04
2019-02-18T15:43:42.519Z,98065.34
2019-02-18T15:48:47.265Z,98073.13
2019-02-18T15:53:52.003Z,98071.38
2019-02-18T15:58:56.857Z,98072.92
2019-02-18T16:04:02.012Z,98080.78
2019-02-18T16:09:06.648Z,98076.27
2019-02-18T16:14:11.495Z,98088.81
2019-02-18T16:19:16.340Z,98085.02
2019-02-18T16:24:25.394Z,98090.27
2019-02-18T16:29:30.432Z,98101.30
2019-02-18T16:34:36.819Z,98106.94
2019-02-18T16:39:42.905Z,98111.66
2019-02-18T16:44:47.722Z,98110.23
2019-02-18T16:49:52.408Z,98125.31
2019-02-18T16:54:57.027Z,98135.99
2019-02-18T17:00:01.728Z,98145.80
2019-02-18T17:05:07.424Z,98143.43
2019-02-18T17:10:12.098Z,98149.80
2019-02-18T17:15:16.924Z,98151.02
2019-02-18T17:20:21.665Z,98153.58
2019-02-18T17:25:26.400Z,98158.38
2019-02-18T17:30:31.243Z,98158.66
2019-02-18T17:35:36.907Z,98164.74
2019-02-18T17:40:42.063Z,98170.92
2019-02-18T17:45:46.863Z,98167.75
2019-02-18T17:50:53.141Z,98175.39
2019-02-18T17:55:57.942Z,98179.98
2019-02-18T18:01:02.879Z,98172.16
2019-02-18T18:06:07.631Z,98169.58
2019-02-18T18:11:12.365Z,98171.93
2019-02-18T18:16:17.738Z,98169.01
2019-02-18T18:21:22.461Z,98168.31
2019-02-18T18:26:27.202Z,98169.88
2019-02-18T18:31:32.866Z,98171.61
2019-02-18T18:36:37.753Z,98174.00
2019-02-18T18:41:43.078Z,98172.16
2019-02-18T18:46:48.951Z,98175.14
2019-02-18T18:51:53.993Z,98175.47
2019-02-18T18:56:58.658Z,98185.38
2019-02-18T19:02:04.231Z,98176.53
2019-02-18T19:07:08.927Z,98184.40
2019-02-18T19:12:13.837Z,98178.31
2019-02-18T19:17:20.044Z,98173.48
2019-02-18T19:22:25.921Z,98177.75
2019-02-18T19:27:31.067Z,98173.16
2019-02-18T19:32:35.956Z,98178.62
2019-02-18T19:37:42.788Z,98180.48
2019-02-18T19:42:49.035Z,98179.17
2019-02-18T19:47:55.388Z,98181.42
2019-02-18T19:53:00.588Z,98186.42
2019-02-18T19:58:05.496Z,98187.23
2019-02-18T20:03:10.170Z,98176.42
2019-02-18T20:08:15.072Z,98175.73
2019-02-18T20:13:19.679Z,98173.38
2019-02-18T20:18:24.467Z,98174.20
2019-02-18T20:23:31.037Z,98163.31
2019-02-18T20:28:35.880Z,98167.16
2019-02-18T20:33:40.984Z,98159.19
2019-02-18T20:38:45.669Z,98160.77
2019-02-18T20:43:50.415Z,98162.22
2019-02-18T20:48:56.218Z,98159.33
2019-02-18T20:54:01.015Z,98152.61
2019-02-18T20:59:06.658Z,98154.22
2019-02-18T21:04:11.434Z,98154.39
2019-02-18T21:09:16.645Z,98153.08
2019-02-18T21:14:21.535Z,98158.25
2019-02-18T21:19:26.420Z,98161.45
2019-02-18T21:24:31.848Z,98161.97
2019-02-18T21:29:37.919Z,98162.11
2019-02-18T21:34:42.935Z,98162.75
2019-02-18T21:39:48.566Z,98167.02
2019-02-18T21:44:53.575Z,98160.94
2019-02-18T21:49:58.533Z,98161.93
2019-02-18T21:55:04.006Z,98168.59
2019-02-18T22:00:19.394Z,98172.99
2019-02-18T22:05:24.221Z,98171.27
2019-02-18T22:10:28.811Z,98169.09
2019-02-18T22:15:34.725Z,98174.38
2019-02-18T22:20:39.471Z,98177.18
2019-02-18T22:25:44.212Z,98176.73
2019-02-18T22:30:48.956Z,98178.55
2019-02-18T22:35:53.595Z,98175.67
2019-02-18T22:40:58.337Z,98175.77
2019-02-18T22:46:03.079Z,98179.69
2019-02-18T22:51:07.822Z,98179.30
2019-02-18T22:56:13.488Z,98179.42
2019-02-18T23:01:19.658Z,98177.16
2019-02-18T23:06:24.410Z,98167.39
2019-02-18T23:11:29.052Z,98173.59
2019-02-18T23:16:33.792Z,98172.30
2019-02-18T23:21:40.481Z,98164.41
2019-02-18T23:26:45.117Z,98163.30
2019-02-18T23:31:50.681Z,98170.89
2019-02-18T23:36:55.323Z,98174.92
2019-02-18T23:42:00.060Z,98167.50
2019-02-18T23:47:06.458Z,98172.01
2019-02-18T23:52:11.186Z,98166.24
2019-02-18T23:57:15.930Z,98166.88
